sensor_id;sensor_type;location;lat;lon;timestamp;P1;durP1;ratioP1;P2;durP2;ratioP2
2680;SDS011;1350;42.134;24.708;2022-10-16T00:00:40;14.75;;;9.90;;
2680;SDS011;1350;42.134;24.708;2022-10-16T00:03:08;13.80;;;10.02;;
2680;SDS011;1350;42.134;24.708;2022-10-16T00:05:37;14.52;;;11.52;;
2680;SDS011;1350;42.134;24.708;2022-10-16T00:08:05;13.82;;;10.20;;
2680;SDS011;1350;42.134;24.708;2022-10-16T00:10:32;20.08;;;11.38;;
2680;SDS011;1350;42.134;24.708;2022-10-16T00:13:01;16.63;;;10.63;;
2680;SDS011;1350;42.134;24.708;2022-10-16T00:15:28;16.10;;;11.10;;
2680;SDS011;1350;42.134;24.708;2022-10-16T00:17:55;14.32;;;10.02;;
2680;SDS011;1350;42.134;24.708;2022-10-16T00:20:22;13.60;;;10.02;;
2680;SDS011;1350;42.134;24.708;2022-10-16T00:22:49;15.98;;;9.77;;
2680;SDS011;1350;42.134;24.708;2022-10-16T00:25:15;13.30;;;10.13;;
2680;SDS011;1350;42.134;24.708;2022-10-16T00:27:42;13.48;;;9.00;;
2680;SDS011;1350;42.134;24.708;2022-10-16T00:30:10;13.82;;;9.85;;
2680;SDS011;1350;42.134;24.708;2022-10-16T00:32:37;16.83;;;9.85;;
2680;SDS011;1350;42.134;24.708;2022-10-16T00:35:04;17.67;;;9.80;;
2680;SDS011;1350;42.134;24.708;2022-10-16T00:37:31;14.38;;;10.15;;
2680;SDS011;1350;42.134;24.708;2022-10-16T00:39:58;13.13;;;9.30;;
2680;SDS011;1350;42.134;24.708;2022-10-16T00:42:25;13.32;;;9.88;;
2680;SDS011;1350;42.134;24.708;2022-10-16T00:44:53;14.65;;;10.68;;
2680;SDS011;1350;42.134;24.708;2022-10-16T00:47:24;14.10;;;9.60;;
2680;SDS011;1350;42.134;24.708;2022-10-16T00:49:56;13.43;;;10.50;;
2680;SDS011;1350;42.134;24.708;2022-10-16T00:52:26;14.45;;;9.50;;
2680;SDS011;1350;42.134;24.708;2022-10-16T00:54:53;24.67;;;10.48;;
2680;SDS011;1350;42.134;24.708;2022-10-16T00:57:20;12.45;;;9.38;;
2680;SDS011;1350;42.134;24.708;2022-10-16T00:59:47;13.90;;;9.63;;
2680;SDS011;1350;42.134;24.708;2022-10-16T01:02:15;17.80;;;10.35;;
2680;SDS011;1350;42.134;24.708;2022-10-16T01:04:46;13.00;;;10.40;;
2680;SDS011;1350;42.134;24.708;2022-10-16T01:07:20;14.13;;;9.82;;
2680;SDS011;1350;42.134;24.708;2022-10-16T01:10:03;14.55;;;10.75;;
2680;SDS011;1350;42.134;24.708;2022-10-16T01:12:39;24.63;;;10.18;;
2680;SDS011;1350;42.134;24.708;2022-10-16T01:15:10;14.25;;;9.85;;
2680;SDS011;1350;42.134;24.708;2022-10-16T01:17:45;14.30;;;10.00;;
2680;SDS011;1350;42.134;24.708;2022-10-16T01:20:22;15.00;;;9.88;;
2680;SDS011;1350;42.134;24.708;2022-10-16T01:23:03;12.38;;;8.70;;
2680;SDS011;1350;42.134;24.708;2022-10-16T01:25:39;13.98;;;9.75;;
2680;SDS011;1350;42.134;24.708;2022-10-16T01:28:24;10.75;;;9.48;;
2680;SDS011;1350;42.134;24.708;2022-10-16T01:30:57;12.35;;;10.48;;
2680;SDS011;1350;42.134;24.708;2022-10-16T01:33:28;15.45;;;10.77;;
2680;SDS011;1350;42.134;24.708;2022-10-16T01:36:01;14.77;;;10.57;;
2680;SDS011;1350;42.134;24.708;2022-10-16T01:38:34;15.38;;;10.70;;
2680;SDS011;1350;42.134;24.708;2022-10-16T01:41:04;14.35;;;9.98;;
2680;SDS011;1350;42.134;24.708;2022-10-16T01:43:37;13.60;;;9.48;;
2680;SDS011;1350;42.134;24.708;2022-10-16T01:46:07;17.60;;;11.13;;
2680;SDS011;1350;42.134;24.708;2022-10-16T01:48:36;14.73;;;9.70;;
2680;SDS011;1350;42.134;24.708;2022-10-16T01:51:05;19.92;;;11.57;;
2680;SDS011;1350;42.134;24.708;2022-10-16T01:53:34;16.88;;;10.80;;
2680;SDS011;1350;42.134;24.708;2022-10-16T01:56:03;16.75;;;10.85;;
2680;SDS011;1350;42.134;24.708;2022-10-16T01:58:33;18.20;;;12.98;;
2680;SDS011;1350;42.134;24.708;2022-10-16T02:01:06;29.48;;;22.83;;
2680;SDS011;1350;42.134;24.708;2022-10-16T02:03:35;24.23;;;18.08;;
2680;SDS011;1350;42.134;24.708;2022-10-16T02:06:07;24.42;;;17.63;;
2680;SDS011;1350;42.134;24.708;2022-10-16T02:08:34;23.08;;;19.90;;
2680;SDS011;1350;42.134;24.708;2022-10-16T02:11:02;23.63;;;19.05;;
2680;SDS011;1350;42.134;24.708;2022-10-16T02:13:30;22.13;;;16.17;;
2680;SDS011;1350;42.134;24.708;2022-10-16T02:16:01;29.58;;;17.98;;
2680;SDS011;1350;42.134;24.708;2022-10-16T02:18:27;24.25;;;16.73;;
2680;SDS011;1350;42.134;24.708;2022-10-16T02:20:57;21.20;;;15.73;;
2680;SDS011;1350;42.134;24.708;2022-10-16T02:23:28;23.02;;;16.90;;
2680;SDS011;1350;42.134;24.708;2022-10-16T02:26:01;21.52;;;16.13;;
2680;SDS011;1350;42.134;24.708;2022-10-16T02:28:31;18.60;;;15.35;;
2680;SDS011;1350;42.134;24.708;2022-10-16T02:31:08;24.33;;;16.65;;
2680;SDS011;1350;42.134;24.708;2022-10-16T02:33:37;25.65;;;16.60;;
2680;SDS011;1350;42.134;24.708;2022-10-16T02:36:07;20.17;;;15.38;;
2680;SDS011;1350;42.134;24.708;2022-10-16T02:38:34;21.90;;;15.18;;
2680;SDS011;1350;42.134;24.708;2022-10-16T02:41:04;19.50;;;15.80;;
2680;SDS011;1350;42.134;24.708;2022-10-16T02:43:31;18.67;;;15.57;;
2680;SDS011;1350;42.134;24.708;2022-10-16T02:45:59;18.77;;;14.15;;
2680;SDS011;1350;42.134;24.708;2022-10-16T02:48:27;23.98;;;13.82;;
2680;SDS011;1350;42.134;24.708;2022-10-16T02:50:54;19.08;;;12.13;;
2680;SDS011;1350;42.134;24.708;2022-10-16T02:53:22;17.15;;;12.98;;
2680;SDS011;1350;42.134;24.708;2022-10-16T02:55:49;17.42;;;13.35;;
2680;SDS011;1350;42.134;24.708;2022-10-16T02:58:15;16.30;;;13.15;;
2680;SDS011;1350;42.134;24.708;2022-10-16T03:00:42;20.50;;;13.63;;
2680;SDS011;1350;42.134;24.708;2022-10-16T03:03:09;19.40;;;14.07;;
2680;SDS011;1350;42.134;24.708;2022-10-16T03:05:37;18.92;;;13.10;;
2680;SDS011;1350;42.134;24.708;2022-10-16T03:08:04;16.40;;;12.60;;
2680;SDS011;1350;42.134;24.708;2022-10-16T03:10:31;16.17;;;12.10;;
2680;SDS011;1350;42.134;24.708;2022-10-16T03:12:58;17.02;;;13.18;;
2680;SDS011;1350;42.134;24.708;2022-10-16T03:15:24;17.25;;;13.57;;
2680;SDS011;1350;42.134;24.708;2022-10-16T03:17:53;15.80;;;13.35;;
2680;SDS011;1350;42.134;24.708;2022-10-16T03:20:19;20.27;;;11.85;;
2680;SDS011;1350;42.134;24.708;2022-10-16T03:22:48;14.02;;;10.10;;
2680;SDS011;1350;42.134;24.708;2022-10-16T03:25:14;15.68;;;12.00;;
2680;SDS011;1350;42.134;24.708;2022-10-16T03:27:41;17.63;;;12.85;;
2680;SDS011;1350;42.134;24.708;2022-10-16T03:30:08;17.08;;;12.10;;
2680;SDS011;1350;42.134;24.708;2022-10-16T03:32:36;17.52;;;13.50;;
2680;SDS011;1350;42.134;24.708;2022-10-16T03:35:03;17.48;;;12.25;;
2680;SDS011;1350;42.134;24.708;2022-10-16T03:37:30;21.67;;;12.32;;
2680;SDS011;1350;42.134;24.708;2022-10-16T03:39:58;16.98;;;11.25;;
2680;SDS011;1350;42.134;24.708;2022-10-16T03:42:25;16.02;;;12.15;;
2680;SDS011;1350;42.134;24.708;2022-10-16T03:44:52;15.60;;;12.15;;
2680;SDS011;1350;42.134;24.708;2022-10-16T03:47:18;19.70;;;12.50;;
2680;SDS011;1350;42.134;24.708;2022-10-16T03:49:48;15.90;;;11.65;;
2680;SDS011;1350;42.134;24.708;2022-10-16T03:52:15;19.50;;;12.68;;
2680;SDS011;1350;42.134;24.708;2022-10-16T03:54:41;15.73;;;11.77;;
2680;SDS011;1350;42.134;24.708;2022-10-16T03:57:09;20.10;;;12.70;;
2680;SDS011;1350;42.134;24.708;2022-10-16T03:59:36;16.48;;;10.57;;
2680;SDS011;1350;42.134;24.708;2022-10-16T04:02:03;13.40;;;11.20;;
2680;SDS011;1350;42.134;24.708;2022-10-16T04:04:30;13.95;;;11.05;;
2680;SDS011;1350;42.134;24.708;2022-10-16T04:06:56;16.83;;;11.27;;
2680;SDS011;1350;42.134;24.708;2022-10-16T04:09:23;15.80;;;13.02;;
2680;SDS011;1350;42.134;24.708;2022-10-16T04:11:50;16.35;;;12.43;;
2680;SDS011;1350;42.134;24.708;2022-10-16T04:14:18;17.42;;;11.88;;
2680;SDS011;1350;42.134;24.708;2022-10-16T04:16:45;19.85;;;13.35;;
2680;SDS011;1350;42.134;24.708;2022-10-16T04:19:12;19.10;;;11.63;;
2680;SDS011;1350;42.134;24.708;2022-10-16T04:21:39;17.55;;;11.93;;
2680;SDS011;1350;42.134;24.708;2022-10-16T04:24:05;21.20;;;11.50;;
2680;SDS011;1350;42.134;24.708;2022-10-16T04:26:32;20.05;;;13.38;;
2680;SDS011;1350;42.134;24.708;2022-10-16T04:28:59;23.00;;;13.77;;
2680;SDS011;1350;42.134;24.708;2022-10-16T04:31:27;14.65;;;10.95;;
2680;SDS011;1350;42.134;24.708;2022-10-16T04:33:54;17.13;;;12.05;;
2680;SDS011;1350;42.134;24.708;2022-10-16T04:36:21;14.65;;;11.75;;
2680;SDS011;1350;42.134;24.708;2022-10-16T04:38:48;18.77;;;12.10;;
2680;SDS011;1350;42.134;24.708;2022-10-16T04:41:14;16.58;;;12.50;;
2680;SDS011;1350;42.134;24.708;2022-10-16T04:43:41;14.82;;;12.45;;
2680;SDS011;1350;42.134;24.708;2022-10-16T04:46:08;19.55;;;13.43;;
2680;SDS011;1350;42.134;24.708;2022-10-16T04:48:36;13.45;;;10.52;;
2680;SDS011;1350;42.134;24.708;2022-10-16T04:51:03;19.67;;;12.70;;
2680;SDS011;1350;42.134;24.708;2022-10-16T04:53:30;21.02;;;12.80;;
2680;SDS011;1350;42.134;24.708;2022-10-16T04:55:57;16.67;;;12.70;;
2680;SDS011;1350;42.134;24.708;2022-10-16T04:58:24;21.45;;;12.95;;
2680;SDS011;1350;42.134;24.708;2022-10-16T05:00:50;19.55;;;12.65;;
2680;SDS011;1350;42.134;24.708;2022-10-16T05:03:17;14.57;;;11.73;;
2680;SDS011;1350;42.134;24.708;2022-10-16T05:05:45;17.33;;;12.30;;
2680;SDS011;1350;42.134;24.708;2022-10-16T05:08:13;22.73;;;12.77;;
2680;SDS011;1350;42.134;24.708;2022-10-16T05:10:41;18.08;;;12.32;;
2680;SDS011;1350;42.134;24.708;2022-10-16T05:13:08;17.55;;;12.13;;
2680;SDS011;1350;42.134;24.708;2022-10-16T05:15:35;41.38;;;15.73;;
2680;SDS011;1350;42.134;24.708;2022-10-16T05:18:02;55.63;;;13.65;;
2680;SDS011;1350;42.134;24.708;2022-10-16T05:20:29;21.42;;;12.68;;
2680;SDS011;1350;42.134;24.708;2022-10-16T05:22:57;79.78;;;15.25;;
2680;SDS011;1350;42.134;24.708;2022-10-16T05:25:24;30.95;;;11.35;;
2680;SDS011;1350;42.134;24.708;2022-10-16T05:27:51;18.65;;;10.18;;
2680;SDS011;1350;42.134;24.708;2022-10-16T05:30:18;13.73;;;9.10;;
2680;SDS011;1350;42.134;24.708;2022-10-16T05:32:46;19.80;;;9.85;;
2680;SDS011;1350;42.134;24.708;2022-10-16T05:35:14;14.18;;;9.13;;
2680;SDS011;1350;42.134;24.708;2022-10-16T05:37:41;10.30;;;8.57;;
2680;SDS011;1350;42.134;24.708;2022-10-16T05:40:10;14.77;;;8.65;;
2680;SDS011;1350;42.134;24.708;2022-10-16T05:42:38;13.90;;;8.02;;
2680;SDS011;1350;42.134;24.708;2022-10-16T05:45:05;13.35;;;8.13;;
2680;SDS011;1350;42.134;24.708;2022-10-16T05:47:33;19.07;;;9.10;;
2680;SDS011;1350;42.134;24.708;2022-10-16T05:50:00;15.53;;;8.97;;
2680;SDS011;1350;42.134;24.708;2022-10-16T05:52:26;13.70;;;8.97;;
2680;SDS011;1350;42.134;24.708;2022-10-16T05:54:53;18.30;;;9.30;;
2680;SDS011;1350;42.134;24.708;2022-10-16T05:57:21;11.67;;;9.07;;
2680;SDS011;1350;42.134;24.708;2022-10-16T05:59:48;17.43;;;9.93;;
2680;SDS011;1350;42.134;24.708;2022-10-16T06:02:15;20.50;;;10.13;;
2680;SDS011;1350;42.134;24.708;2022-10-16T06:04:42;17.97;;;11.40;;
2680;SDS011;1350;42.134;24.708;2022-10-16T06:07:08;15.87;;;9.50;;
2680;SDS011;1350;42.134;24.708;2022-10-16T06:09:35;23.20;;;10.70;;
2680;SDS011;1350;42.134;24.708;2022-10-16T06:12:05;13.70;;;10.10;;
2680;SDS011;1350;42.134;24.708;2022-10-16T06:14:33;10.73;;;8.77;;
2680;SDS011;1350;42.134;24.708;2022-10-16T06:17:02;10.73;;;8.50;;
2680;SDS011;1350;42.134;24.708;2022-10-16T06:19:29;21.87;;;10.87;;
2680;SDS011;1350;42.134;24.708;2022-10-16T06:21:56;17.93;;;8.87;;
2680;SDS011;1350;42.134;24.708;2022-10-16T06:24:24;13.10;;;8.27;;
2680;SDS011;1350;42.134;24.708;2022-10-16T06:26:50;16.23;;;8.90;;
2680;SDS011;1350;42.134;24.708;2022-10-16T06:29:17;13.20;;;8.63;;
2680;SDS011;1350;42.134;24.708;2022-10-16T06:31:46;12.53;;;7.60;;
2680;SDS011;1350;42.134;24.708;2022-10-16T06:34:12;11.73;;;7.80;;
2680;SDS011;1350;42.134;24.708;2022-10-16T06:36:39;14.67;;;9.00;;
2680;SDS011;1350;42.134;24.708;2022-10-16T06:39:06;13.73;;;10.10;;
2680;SDS011;1350;42.134;24.708;2022-10-16T06:41:33;18.23;;;9.33;;
2680;SDS011;1350;42.134;24.708;2022-10-16T06:44:00;18.67;;;9.10;;
2680;SDS011;1350;42.134;24.708;2022-10-16T06:46:27;15.37;;;9.50;;
2680;SDS011;1350;42.134;24.708;2022-10-16T06:48:55;11.60;;;8.47;;
2680;SDS011;1350;42.134;24.708;2022-10-16T06:51:23;13.23;;;8.20;;
2680;SDS011;1350;42.134;24.708;2022-10-16T06:53:51;12.57;;;8.60;;
2680;SDS011;1350;42.134;24.708;2022-10-16T06:56:20;12.77;;;8.30;;
2680;SDS011;1350;42.134;24.708;2022-10-16T06:58:48;14.37;;;7.77;;
2680;SDS011;1350;42.134;24.708;2022-10-16T07:01:16;14.00;;;7.83;;
2680;SDS011;1350;42.134;24.708;2022-10-16T07:03:44;12.20;;;7.20;;
2680;SDS011;1350;42.134;24.708;2022-10-16T07:06:14;11.50;;;8.70;;
2680;SDS011;1350;42.134;24.708;2022-10-16T07:08:43;10.53;;;7.33;;
2680;SDS011;1350;42.134;24.708;2022-10-16T07:11:11;11.10;;;8.40;;
2680;SDS011;1350;42.134;24.708;2022-10-16T07:13:40;12.80;;;8.03;;
2680;SDS011;1350;42.134;24.708;2022-10-16T07:16:09;11.77;;;8.50;;
2680;SDS011;1350;42.134;24.708;2022-10-16T07:18:37;12.90;;;8.83;;
2680;SDS011;1350;42.134;24.708;2022-10-16T07:21:05;41.97;;;14.80;;
2680;SDS011;1350;42.134;24.708;2022-10-16T07:23:34;22.17;;;9.37;;
2680;SDS011;1350;42.134;24.708;2022-10-16T07:26:01;15.90;;;8.47;;
2680;SDS011;1350;42.134;24.708;2022-10-16T07:28:28;36.33;;;10.03;;
2680;SDS011;1350;42.134;24.708;2022-10-16T07:30:55;41.17;;;9.83;;
2680;SDS011;1350;42.134;24.708;2022-10-16T07:33:26;12.20;;;7.83;;
2680;SDS011;1350;42.134;24.708;2022-10-16T07:35:54;13.10;;;7.20;;
2680;SDS011;1350;42.134;24.708;2022-10-16T07:38:21;11.50;;;8.00;;
2680;SDS011;1350;42.134;24.708;2022-10-16T07:40:55;10.83;;;7.90;;
2680;SDS011;1350;42.134;24.708;2022-10-16T07:43:22;11.00;;;6.50;;
2680;SDS011;1350;42.134;24.708;2022-10-16T07:45:50;11.07;;;7.43;;
2680;SDS011;1350;42.134;24.708;2022-10-16T07:48:17;14.03;;;7.97;;
2680;SDS011;1350;42.134;24.708;2022-10-16T07:50:44;9.30;;;7.20;;
2680;SDS011;1350;42.134;24.708;2022-10-16T07:53:12;12.20;;;7.27;;
2680;SDS011;1350;42.134;24.708;2022-10-16T07:55:39;10.30;;;8.30;;
2680;SDS011;1350;42.134;24.708;2022-10-16T07:58:07;10.83;;;6.30;;
2680;SDS011;1350;42.134;24.708;2022-10-16T08:00:35;12.20;;;6.70;;
2680;SDS011;1350;42.134;24.708;2022-10-16T08:03:03;13.53;;;7.60;;
2680;SDS011;1350;42.134;24.708;2022-10-16T08:05:31;15.20;;;7.27;;
2680;SDS011;1350;42.134;24.708;2022-10-16T08:07:59;10.37;;;6.87;;
2680;SDS011;1350;42.134;24.708;2022-10-16T08:10:26;14.83;;;8.03;;
2680;SDS011;1350;42.134;24.708;2022-10-16T08:12:54;11.83;;;8.47;;
2680;SDS011;1350;42.134;24.708;2022-10-16T08:15:23;30.83;;;26.50;;
2680;SDS011;1350;42.134;24.708;2022-10-16T08:17:57;65.20;;;49.90;;
2680;SDS011;1350;42.134;24.708;2022-10-16T08:20:24;189.97;;;130.63;;
2680;SDS011;1350;42.134;24.708;2022-10-16T08:22:52;301.30;;;183.70;;
2680;SDS011;1350;42.134;24.708;2022-10-16T08:25:19;410.07;;;272.87;;
2680;SDS011;1350;42.134;24.708;2022-10-16T08:27:46;1109.70;;;684.90;;
2680;SDS011;1350;42.134;24.708;2022-10-16T08:30:13;1514.13;;;796.47;;
2680;SDS011;1350;42.134;24.708;2022-10-16T08:32:42;339.87;;;232.07;;
2680;SDS011;1350;42.134;24.708;2022-10-16T08:35:09;87.20;;;55.70;;
2680;SDS011;1350;42.134;24.708;2022-10-16T08:37:36;24.03;;;17.73;;
2680;SDS011;1350;42.134;24.708;2022-10-16T08:40:04;155.77;;;111.43;;
2680;SDS011;1350;42.134;24.708;2022-10-16T08:42:37;191.27;;;140.33;;
2680;SDS011;1350;42.134;24.708;2022-10-16T08:45:26;433.47;;;318.40;;
2680;SDS011;1350;42.134;24.708;2022-10-16T08:48:06;59.23;;;41.43;;
2680;SDS011;1350;42.134;24.708;2022-10-16T08:50:41;217.80;;;139.20;;
2680;SDS011;1350;42.134;24.708;2022-10-16T08:53:10;259.80;;;173.13;;
2680;SDS011;1350;42.134;24.708;2022-10-16T08:55:42;446.77;;;262.57;;
2680;SDS011;1350;42.134;24.708;2022-10-16T08:58:12;50.50;;;27.27;;
2680;SDS011;1350;42.134;24.708;2022-10-16T09:00:41;754.20;;;622.20;;
2680;SDS011;1350;42.134;24.708;2022-10-16T09:03:13;45.67;;;29.43;;
2680;SDS011;1350;42.134;24.708;2022-10-16T09:05:57;12.80;;;8.17;;
2680;SDS011;1350;42.134;24.708;2022-10-16T09:08:38;9.20;;;6.70;;
2680;SDS011;1350;42.134;24.708;2022-10-16T09:11:14;12.27;;;7.80;;
2680;SDS011;1350;42.134;24.708;2022-10-16T09:13:51;9.70;;;6.50;;
2680;SDS011;1350;42.134;24.708;2022-10-16T09:16:30;9.60;;;6.30;;
2680;SDS011;1350;42.134;24.708;2022-10-16T09:19:04;10.30;;;6.87;;
2680;SDS011;1350;42.134;24.708;2022-10-16T09:21:39;14.00;;;6.97;;
2680;SDS011;1350;42.134;24.708;2022-10-16T09:24:09;11.33;;;8.33;;
2680;SDS011;1350;42.134;24.708;2022-10-16T09:26:40;9.63;;;6.20;;
2680;SDS011;1350;42.134;24.708;2022-10-16T09:29:08;13.00;;;9.37;;
2680;SDS011;1350;42.134;24.708;2022-10-16T09:31:37;10.20;;;6.80;;
2680;SDS011;1350;42.134;24.708;2022-10-16T09:34:06;11.70;;;6.73;;
2680;SDS011;1350;42.134;24.708;2022-10-16T09:36:44;9.60;;;6.10;;
2680;SDS011;1350;42.134;24.708;2022-10-16T09:39:12;11.93;;;6.33;;
2680;SDS011;1350;42.134;24.708;2022-10-16T09:41:39;8.13;;;6.07;;
2680;SDS011;1350;42.134;24.708;2022-10-16T09:44:15;9.50;;;6.43;;
2680;SDS011;1350;42.134;24.708;2022-10-16T09:46:45;10.73;;;5.67;;
2680;SDS011;1350;42.134;24.708;2022-10-16T09:49:20;9.50;;;6.20;;
2680;SDS011;1350;42.134;24.708;2022-10-16T09:51:48;8.87;;;5.47;;
2680;SDS011;1350;42.134;24.708;2022-10-16T09:54:16;8.60;;;6.57;;
2680;SDS011;1350;42.134;24.708;2022-10-16T09:56:44;7.77;;;5.33;;
2680;SDS011;1350;42.134;24.708;2022-10-16T09:59:14;9.50;;;5.70;;
2680;SDS011;1350;42.134;24.708;2022-10-16T10:01:43;7.27;;;4.87;;
2680;SDS011;1350;42.134;24.708;2022-10-16T10:04:13;11.87;;;5.27;;
2680;SDS011;1350;42.134;24.708;2022-10-16T10:06:42;8.37;;;5.90;;
2680;SDS011;1350;42.134;24.708;2022-10-16T10:09:18;10.93;;;5.70;;
2680;SDS011;1350;42.134;24.708;2022-10-16T10:11:51;9.90;;;5.40;;
2680;SDS011;1350;42.134;24.708;2022-10-16T10:14:21;11.17;;;6.40;;
2680;SDS011;1350;42.134;24.708;2022-10-16T10:16:51;10.00;;;5.80;;
2680;SDS011;1350;42.134;24.708;2022-10-16T10:19:19;8.57;;;5.37;;
2680;SDS011;1350;42.134;24.708;2022-10-16T10:21:49;9.97;;;5.60;;
2680;SDS011;1350;42.134;24.708;2022-10-16T10:24:17;10.87;;;6.97;;
2680;SDS011;1350;42.134;24.708;2022-10-16T10:26:54;8.60;;;5.47;;
2680;SDS011;1350;42.134;24.708;2022-10-16T10:29:32;10.07;;;5.90;;
2680;SDS011;1350;42.134;24.708;2022-10-16T10:32:16;7.73;;;5.27;;
2680;SDS011;1350;42.134;24.708;2022-10-16T10:34:56;11.47;;;5.97;;
2680;SDS011;1350;42.134;24.708;2022-10-16T10:37:40;9.43;;;5.07;;
2680;SDS011;1350;42.134;24.708;2022-10-16T10:40:22;7.60;;;4.63;;
2680;SDS011;1350;42.134;24.708;2022-10-16T10:42:57;14.50;;;5.60;;
2680;SDS011;1350;42.134;24.708;2022-10-16T10:45:35;12.30;;;9.47;;
2680;SDS011;1350;42.134;24.708;2022-10-16T10:48:19;7.13;;;5.20;;
2680;SDS011;1350;42.134;24.708;2022-10-16T10:50:56;8.60;;;5.47;;
2680;SDS011;1350;42.134;24.708;2022-10-16T10:53:32;8.23;;;5.00;;
2680;SDS011;1350;42.134;24.708;2022-10-16T10:56:10;8.13;;;5.17;;
2680;SDS011;1350;42.134;24.708;2022-10-16T11:01:45;9.27;;;5.33;;
2680;SDS011;1350;42.134;24.708;2022-10-16T11:04:42;19.90;;;6.43;;
2680;SDS011;1350;42.134;24.708;2022-10-16T11:07:21;13.13;;;5.90;;
2680;SDS011;1350;42.134;24.708;2022-10-16T11:09:55;8.10;;;5.57;;
2680;SDS011;1350;42.134;24.708;2022-10-16T11:12:29;14.90;;;11.23;;
2680;SDS011;1350;42.134;24.708;2022-10-16T11:15:02;10.60;;;5.53;;
2680;SDS011;1350;42.134;24.708;2022-10-16T11:17:38;15.80;;;9.10;;
2680;SDS011;1350;42.134;24.708;2022-10-16T11:20:11;8.83;;;5.53;;
2680;SDS011;1350;42.134;24.708;2022-10-16T11:22:44;7.63;;;5.10;;
2680;SDS011;1350;42.134;24.708;2022-10-16T11:25:18;7.90;;;4.57;;
2680;SDS011;1350;42.134;24.708;2022-10-16T11:27:49;9.93;;;5.67;;
2680;SDS011;1350;42.134;24.708;2022-10-16T11:30:20;9.57;;;5.57;;
2680;SDS011;1350;42.134;24.708;2022-10-16T11:32:58;9.80;;;7.73;;
2680;SDS011;1350;42.134;24.708;2022-10-16T11:35:33;8.77;;;5.23;;
2680;SDS011;1350;42.134;24.708;2022-10-16T11:38:09;9.80;;;6.00;;
2680;SDS011;1350;42.134;24.708;2022-10-16T11:40:42;8.13;;;4.60;;
2680;SDS011;1350;42.134;24.708;2022-10-16T11:43:13;9.70;;;5.50;;
2680;SDS011;1350;42.134;24.708;2022-10-16T11:45:43;8.20;;;4.60;;
2680;SDS011;1350;42.134;24.708;2022-10-16T11:48:15;6.90;;;4.77;;
2680;SDS011;1350;42.134;24.708;2022-10-16T11:50:50;8.20;;;5.33;;
2680;SDS011;1350;42.134;24.708;2022-10-16T11:53:22;8.40;;;5.20;;
2680;SDS011;1350;42.134;24.708;2022-10-16T11:55:56;8.90;;;5.30;;
2680;SDS011;1350;42.134;24.708;2022-10-16T11:58:24;10.70;;;5.40;;
2680;SDS011;1350;42.134;24.708;2022-10-16T12:00:58;9.53;;;5.00;;
2680;SDS011;1350;42.134;24.708;2022-10-16T12:03:34;12.90;;;5.90;;
2680;SDS011;1350;42.134;24.708;2022-10-16T12:06:10;8.90;;;5.03;;
2680;SDS011;1350;42.134;24.708;2022-10-16T12:08:48;8.43;;;4.43;;
2680;SDS011;1350;42.134;24.708;2022-10-16T12:11:22;10.73;;;5.60;;
2680;SDS011;1350;42.134;24.708;2022-10-16T12:14:03;11.10;;;5.33;;
2680;SDS011;1350;42.134;24.708;2022-10-16T12:16:50;7.77;;;5.73;;
2680;SDS011;1350;42.134;24.708;2022-10-16T12:19:19;8.53;;;6.40;;
2680;SDS011;1350;42.134;24.708;2022-10-16T12:21:47;11.80;;;4.90;;
2680;SDS011;1350;42.134;24.708;2022-10-16T12:24:27;18.60;;;5.90;;
2680;SDS011;1350;42.134;24.708;2022-10-16T12:26:59;7.90;;;5.30;;
2680;SDS011;1350;42.134;24.708;2022-10-16T12:29:30;8.73;;;5.77;;
2680;SDS011;1350;42.134;24.708;2022-10-16T12:32:00;8.00;;;5.60;;
2680;SDS011;1350;42.134;24.708;2022-10-16T12:34:29;9.50;;;4.80;;
2680;SDS011;1350;42.134;24.708;2022-10-16T12:37:08;9.27;;;5.73;;
2680;SDS011;1350;42.134;24.708;2022-10-16T12:39:37;10.67;;;5.20;;
2680;SDS011;1350;42.134;24.708;2022-10-16T12:42:19;10.17;;;5.90;;
2680;SDS011;1350;42.134;24.708;2022-10-16T12:44:48;11.10;;;6.73;;
2680;SDS011;1350;42.134;24.708;2022-10-16T12:47:22;8.57;;;5.70;;
2680;SDS011;1350;42.134;24.708;2022-10-16T12:50:00;11.90;;;5.87;;
2680;SDS011;1350;42.134;24.708;2022-10-16T12:52:34;11.90;;;5.00;;
2680;SDS011;1350;42.134;24.708;2022-10-16T12:55:03;11.57;;;6.03;;
2680;SDS011;1350;42.134;24.708;2022-10-16T12:57:37;8.60;;;6.00;;
2680;SDS011;1350;42.134;24.708;2022-10-16T13:00:18;9.50;;;5.87;;
2680;SDS011;1350;42.134;24.708;2022-10-16T13:02:55;9.83;;;6.10;;
2680;SDS011;1350;42.134;24.708;2022-10-16T13:05:43;11.40;;;6.30;;
2680;SDS011;1350;42.134;24.708;2022-10-16T13:08:24;8.37;;;5.70;;
2680;SDS011;1350;42.134;24.708;2022-10-16T13:11:03;9.43;;;6.30;;
2680;SDS011;1350;42.134;24.708;2022-10-16T13:16:46;12.43;;;6.43;;
2680;SDS011;1350;42.134;24.708;2022-10-16T13:19:22;10.90;;;6.33;;
2680;SDS011;1350;42.134;24.708;2022-10-16T13:21:56;14.50;;;5.97;;
2680;SDS011;1350;42.134;24.708;2022-10-16T13:24:35;9.63;;;6.43;;
2680;SDS011;1350;42.134;24.708;2022-10-16T13:27:10;10.43;;;5.80;;
2680;SDS011;1350;42.134;24.708;2022-10-16T13:29:46;9.70;;;6.30;;
2680;SDS011;1350;42.134;24.708;2022-10-16T13:32:20;8.83;;;6.23;;
2680;SDS011;1350;42.134;24.708;2022-10-16T13:34:48;13.10;;;5.80;;
2680;SDS011;1350;42.134;24.708;2022-10-16T13:37:16;12.13;;;7.47;;
2680;SDS011;1350;42.134;24.708;2022-10-16T13:39:44;12.27;;;6.83;;
2680;SDS011;1350;42.134;24.708;2022-10-16T13:42:12;12.50;;;5.63;;
2680;SDS011;1350;42.134;24.708;2022-10-16T13:44:51;9.70;;;7.00;;
2680;SDS011;1350;42.134;24.708;2022-10-16T13:47:20;10.73;;;6.80;;
2680;SDS011;1350;42.134;24.708;2022-10-16T13:49:58;8.57;;;5.47;;
2680;SDS011;1350;42.134;24.708;2022-10-16T13:52:26;9.70;;;6.03;;
2680;SDS011;1350;42.134;24.708;2022-10-16T13:54:53;10.40;;;6.67;;
2680;SDS011;1350;42.134;24.708;2022-10-16T13:57:21;9.63;;;6.13;;
2680;SDS011;1350;42.134;24.708;2022-10-16T13:59:48;9.17;;;6.50;;
2680;SDS011;1350;42.134;24.708;2022-10-16T14:02:19;11.37;;;7.23;;
2680;SDS011;1350;42.134;24.708;2022-10-16T14:04:51;15.27;;;7.10;;
2680;SDS011;1350;42.134;24.708;2022-10-16T14:07:23;8.43;;;6.10;;
2680;SDS011;1350;42.134;24.708;2022-10-16T14:09:52;9.73;;;6.60;;
2680;SDS011;1350;42.134;24.708;2022-10-16T14:12:20;11.87;;;7.03;;
2680;SDS011;1350;42.134;24.708;2022-10-16T14:14:48;12.70;;;6.50;;
2680;SDS011;1350;42.134;24.708;2022-10-16T14:17:20;11.03;;;6.13;;
2680;SDS011;1350;42.134;24.708;2022-10-16T14:19:50;9.90;;;6.60;;
2680;SDS011;1350;42.134;24.708;2022-10-16T14:22:22;11.23;;;7.33;;
2680;SDS011;1350;42.134;24.708;2022-10-16T14:24:54;11.40;;;7.00;;
2680;SDS011;1350;42.134;24.708;2022-10-16T14:27:23;8.93;;;6.10;;
2680;SDS011;1350;42.134;24.708;2022-10-16T14:30:03;9.50;;;6.33;;
2680;SDS011;1350;42.134;24.708;2022-10-16T14:32:52;9.40;;;6.73;;
2680;SDS011;1350;42.134;24.708;2022-10-16T14:35:25;12.00;;;6.50;;
2680;SDS011;1350;42.134;24.708;2022-10-16T14:37:59;8.73;;;6.80;;
2680;SDS011;1350;42.134;24.708;2022-10-16T14:40:29;9.03;;;7.07;;
2680;SDS011;1350;42.134;24.708;2022-10-16T14:42:57;11.50;;;7.07;;
2680;SDS011;1350;42.134;24.708;2022-10-16T14:45:26;10.80;;;6.60;;
2680;SDS011;1350;42.134;24.708;2022-10-16T14:47:57;8.63;;;6.07;;
2680;SDS011;1350;42.134;24.708;2022-10-16T14:50:26;11.57;;;5.67;;
2680;SDS011;1350;42.134;24.708;2022-10-16T14:52:53;12.33;;;7.53;;
2680;SDS011;1350;42.134;24.708;2022-10-16T14:55:21;10.27;;;5.53;;
2680;SDS011;1350;42.134;24.708;2022-10-16T14:57:48;10.80;;;7.53;;
2680;SDS011;1350;42.134;24.708;2022-10-16T15:00:16;10.13;;;6.20;;
2680;SDS011;1350;42.134;24.708;2022-10-16T15:02:46;16.83;;;8.17;;
2680;SDS011;1350;42.134;24.708;2022-10-16T15:05:17;12.87;;;7.90;;
2680;SDS011;1350;42.134;24.708;2022-10-16T15:07:45;10.07;;;7.10;;